Ashley, North Dakota
Current Conditions -  °F | °C
As of 5:55 PM on Friday 24 Oct 2014 (Local Time) from K7L2 Reporting Station
Few Clouds Few Clouds  
Wind Chill: 64°   Ceiling: Unl
Heat Index: 64°   Visibility: 10mi
Dew Point: 39°   Wind: 12mph
Humidity: 40%   Direction: 320°NW
Pressure: 29.96"   Gusts: NA
Location:  46.03°N, 99.37°W
Report Text: K7L2 242255Z AUTO 32010KT 10SM FEW110 18/04 A2996 RMK AO2 PWINO PNO
Loading
Personal Weather Stations






























Interactive Weather Map New forecast layout! Learn more

10-Day Weather Forecast

Advertisements
Track Severe Weather on mobile